Time;durP1;ratioP1;P1;durP2;ratioP2;P2;SDS_P1;SDS_P2;PMS_P1;PMS_P2;Temp;Humidity;BMP_temperature;BMP_pressure;BME280_temperature;BME280_humidity;BME280_pressure;Samples;Min_cycle;Max_cycle;Signal;HPM_P1;HPM_P2
2021/04/04 00:01:56;;;;;;;4.30;2.60;;;;;;;1.97;61.84;101682.50;4983085;28;20046;-73
2021/04/04 00:04:23;;;;;;;5.32;2.80;;;;;;;1.49;63.19;101681.94;4999322;28;20153;-74
2021/04/04 00:06:49;;;;;;;4.97;2.58;;;;;;;1.37;63.05;101681.97;4992265;28;20065;-74
2021/04/04 00:09:19;;;;;;;6.35;2.83;;;;;;;1.64;63.99;101681.00;4981505;28;20060;-73
2021/04/04 00:11:47;;;;;;;6.75;3.13;;;;;;;1.52;63.94;101675.84;4980073;28;20122;-73
2021/04/04 00:14:14;;;;;;;7.35;2.90;;;;;;;1.37;64.62;101679.38;5001005;28;20064;-72
2021/04/04 00:16:41;;;;;;;7.47;2.80;;;;;;;1.39;63.90;101675.03;4990203;28;20046;-73
2021/04/04 00:19:07;;;;;;;5.78;2.80;;;;;;;1.69;64.33;101678.38;5003332;28;20128;-74
2021/04/04 00:21:34;;;;;;;7.10;2.75;;;;;;;1.90;62.82;101675.66;4998856;28;20062;-74
2021/04/04 00:24:06;;;;;;;6.05;2.88;;;;;;;1.94;63.01;101676.50;5000266;28;20057;-73
2021/04/04 00:26:32;;;;;;;10.15;3.20;;;;;;;1.76;62.36;101670.56;4985718;28;20137;-73
2021/04/04 00:28:59;;;;;;;3.70;1.92;;;;;;;1.34;63.41;101675.94;4982953;28;20216;-74
2021/04/04 00:31:26;;;;;;;6.53;2.83;;;;;;;1.17;64.40;101681.19;4998258;28;20057;-73
2021/04/04 03:15:03;;;;;;;10.80;2.88;;;;;;;0.75;65.63;101613.91;5005356;28;20042;-78
2021/04/04 03:17:30;;;;;;;4.70;2.60;;;;;;;0.57;65.86;101615.69;5011878;28;20041;-76
2021/04/04 03:19:58;;;;;;;5.15;2.20;;;;;;;1.01;65.63;101613.81;5024067;28;20065;-79
2021/04/04 03:22:25;;;;;;;6.32;2.35;;;;;;;1.26;64.95;101613.69;4981686;28;20050;-78
2021/04/04 03:24:52;;;;;;;5.57;2.47;;;;;;;1.47;63.65;101617.94;5018935;28;20042;-79
2021/04/04 03:27:26;;;;;;;9.45;3.67;;;;;;;1.58;63.38;101616.16;5017674;28;20072;-79
2021/04/04 03:30:05;;;;;;;5.97;3.28;;;;;;;1.58;64.08;101608.38;4982629;28;20046;-77
2021/04/04 03:32:34;;;;;;;4.05;2.13;;;;;;;1.56;63.36;101606.63;4999172;28;20068;-78
2021/04/04 03:35:03;;;;;;;10.77;3.10;;;;;;;1.51;63.77;101602.34;4992497;28;20057;-78
2021/04/04 03:37:30;;;;;;;4.53;2.58;;;;;;;1.73;63.19;101600.47;5009874;28;20049;-78
2021/04/04 03:39:57;;;;;;;6.60;2.75;;;;;;;1.61;63.00;101604.88;5010668;28;20410;-76
2021/04/04 03:42:26;;;;;;;6.80;2.35;;;;;;;1.57;63.30;101592.78;5013925;28;20061;-78
2021/04/04 03:44:54;;;;;;;6.03;2.53;;;;;;;1.31;63.34;101590.38;4987652;28;20059;-78
2021/04/04 03:47:21;;;;;;;11.38;2.72;;;;;;;1.09;65.09;101594.78;4993134;28;20069;-79
2021/04/04 03:49:49;;;;;;;4.50;2.35;;;;;;;1.24;63.87;101589.53;5012386;28;20045;-76
2021/04/04 03:52:17;;;;;;;4.70;2.55;;;;;;;1.37;64.14;101588.59;5003689;28;20069;-77
2021/04/04 03:54:44;;;;;;;5.50;2.28;;;;;;;1.51;63.61;101583.31;4983619;28;20061;-77
2021/04/04 03:57:13;;;;;;;3.83;2.20;;;;;;;1.25;63.30;101586.06;4990542;28;20038;-77
2021/04/04 03:59:41;;;;;;;7.90;2.70;;;;;;;0.90;65.06;101581.91;5004047;28;20146;-77
2021/04/04 04:02:08;;;;;;;5.10;2.38;;;;;;;1.04;65.11;101583.53;5002626;28;20053;-78
2021/04/04 04:04:36;;;;;;;8.63;3.00;;;;;;;0.94;64.60;101580.13;5016539;28;20161;-78
2021/04/04 04:07:03;;;;;;;4.07;2.05;;;;;;;0.67;65.63;101579.38;4994314;28;20062;-79
2021/04/04 04:09:31;;;;;;;3.78;1.85;;;;;;;0.82;65.79;101585.38;5018908;28;20045;-78
2021/04/04 04:11:59;;;;;;;5.93;1.92;;;;;;;0.54;65.73;101582.00;4999668;28;20518;-79
2021/04/04 04:14:26;;;;;;;4.15;2.03;;;;;;;0.97;65.22;101582.72;5000515;28;20089;-78
2021/04/04 04:16:53;;;;;;;7.00;1.90;;;;;;;1.31;64.59;101580.84;5010489;28;20097;-77
2021/04/04 04:19:20;;;;;;;4.65;2.33;;;;;;;1.12;64.23;101571.41;5000279;28;20049;-78
2021/04/04 04:21:47;;;;;;;4.10;2.20;;;;;;;0.69;65.45;101567.28;4999631;28;20108;-79
2021/04/04 04:24:15;;;;;;;6.20;2.25;;;;;;;0.47;66.49;101576.84;5018243;28;20112;-79
2021/04/04 04:26:46;;;;;;;4.18;2.58;;;;;;;1.00;65.18;101570.63;4996394;28;20078;-78
2021/04/04 04:29:15;;;;;;;4.38;1.83;;;;;;;1.10;65.61;101574.03;4997261;28;20426;-77
2021/04/04 04:31:51;;;;;;;5.38;3.38;;;;;;;0.97;65.41;101575.81;5001402;28;21123;-77
2021/04/04 04:34:19;;;;;;;4.18;2.22;;;;;;;0.87;65.50;101573.28;5026500;28;20050;-77
2021/04/04 04:36:48;;;;;;;5.05;2.47;;;;;;;0.68;66.64;101567.28;5021723;28;20042;-78
2021/04/04 04:39:15;;;;;;;6.82;2.50;;;;;;;1.02;65.13;101568.88;5020509;28;20092;-79
2021/04/04 04:41:45;;;;;;;6.00;2.58;;;;;;;0.99;66.59;101568.00;5028433;28;20066;-78
2021/04/04 04:44:13;;;;;;;5.32;2.42;;;;;;;1.21;64.88;101571.38;5000478;28;20200;-78
2021/04/04 04:46:42;;;;;;;7.85;3.05;;;;;;;1.48;64.45;101559.97;4986231;28;20041;-79
2021/04/04 04:49:09;;;;;;;7.82;2.53;;;;;;;1.16;64.24;101560.16;5002231;28;20153;-76
2021/04/04 04:51:40;;;;;;;5.85;2.80;;;;;;;1.05;65.20;101564.56;5023454;28;20065;-78
2021/04/04 04:54:08;;;;;;;5.78;3.20;;;;;;;0.91;65.71;101562.88;5006281;28;20105;-78
2021/04/04 04:56:38;;;;;;;6.25;3.00;;;;;;;0.93;66.03;101566.31;5001675;28;20080;-78
2021/04/04 04:59:06;;;;;;;5.85;2.95;;;;;;;1.34;64.73;101561.78;4997420;28;20054;-79
2021/04/04 05:01:37;;;;;;;4.65;2.75;;;;;;;1.25;64.35;101563.56;5013621;28;21017;-78
2021/04/04 05:04:04;;;;;;;6.80;3.42;;;;;;;1.01;65.28;101564.56;5014988;28;20105;-76
2021/04/04 05:06:31;;;;;;;5.40;2.40;;;;;;;0.95;65.27;101562.00;5019150;28;20223;-76
2021/04/04 05:08:58;;;;;;;5.80;3.05;;;;;;;0.90;65.54;101563.75;5003604;28;20052;-77
2021/04/04 05:11:26;;;;;;;8.40;2.78;;;;;;;1.07;65.58;101573.19;5010787;28;20068;-77
2021/04/04 05:13:53;;;;;;;4.72;3.08;;;;;;;1.20;64.66;101573.09;4999794;28;20037;-79
2021/04/04 05:16:21;;;;;;;6.75;3.15;;;;;;;1.81;62.85;101561.47;4992930;28;20054;-77
2021/04/04 05:18:52;;;;;;;4.95;2.97;;;;;;;2.40;60.79;101567.00;5007845;28;20139;-77
2021/04/04 05:21:27;;;;;;;4.55;2.55;;;;;;;2.84;59.42;101561.31;5002410;28;20919;-78
2021/04/04 05:24:01;;;;;;;6.70;3.30;;;;;;;3.38;58.17;101556.28;5027375;28;20171;-77
2021/04/04 05:26:35;;;;;;;7.30;2.55;;;;;;;4.37;55.44;101555.50;5031641;28;20042;-77
2021/04/04 05:29:10;;;;;;;7.30;2.95;;;;;;;5.46;51.40;101554.16;5027751;28;20062;-80
2021/04/04 05:31:51;;;;;;;4.10;2.30;;;;;;;6.56;48.17;101549.63;5031696;28;20057;-78
2021/04/04 05:34:23;;;;;;;5.20;2.58;;;;;;;6.63;47.78;101545.09;5006126;28;20430;-78
2021/04/04 05:37:01;;;;;;;4.13;2.38;;;;;;;6.43;47.82;101543.03;5011090;28;20066;-78
2021/04/04 05:39:32;;;;;;;4.70;2.47;;;;;;;6.06;48.41;101546.59;5014535;28;20045;-77
2021/04/04 05:42:01;;;;;;;5.65;3.08;;;;;;;6.29;48.88;101547.78;5020345;28;20053;-77
2021/04/04 05:44:36;;;;;;;5.85;2.40;;;;;;;7.47;45.50;101547.84;5029693;28;20056;-78
2021/04/04 05:47:08;;;;;;;5.05;2.95;;;;;;;8.36;43.25;101545.78;5031683;28;20050;-76
2021/04/04 05:50:04;;;;;;;4.28;2.63;;;;;;;8.17;41.72;101539.44;5016239;28;20109;-77
2021/04/04 05:52:44;;;;;;;4.50;2.80;;;;;;;8.05;42.44;101532.84;5009059;28;20113;-77
2021/04/04 05:55:29;;;;;;;5.03;2.90;;;;;;;7.03;43.93;101534.34;5023644;28;20088;-79
2021/04/04 05:58:01;;;;;;;5.65;2.88;;;;;;;6.87;45.17;101535.69;5022140;28;20065;-78
2021/04/04 06:00:32;;;;;;;6.32;2.83;;;;;;;7.49;43.64;101534.72;5010399;28;20034;-76
2021/04/04 06:03:24;;;;;;;7.95;2.63;;;;;;;8.10;41.59;101527.44;5022296;28;20050;-77
2021/04/04 06:06:19;;;;;;;4.53;2.60;;;;;;;7.83;42.86;101531.84;5028830;28;20072;-77
2021/04/04 06:09:18;;;;;;;6.55;2.35;;;;;;;6.66;44.12;101523.22;5004687;28;20049;-78
2021/04/04 06:12:10;;;;;;;4.45;2.20;;;;;;;6.93;43.92;101532.03;5017850;28;20116;-79
2021/04/04 06:14:40;;;;;;;5.40;2.35;;;;;;;7.52;43.04;101527.63;5019566;28;20046;-79
2021/04/04 06:17:15;;;;;;;4.68;2.17;;;;;;;8.35;40.83;101524.81;5003788;28;20058;-80
2021/04/04 06:19:52;;;;;;;5.55;2.50;;;;;;;8.95;40.06;101520.91;5017529;28;20060;-80
2021/04/04 06:22:24;;;;;;;7.00;3.13;;;;;;;9.36;39.52;101523.69;4994444;28;20101;-77
2021/04/04 06:25:03;;;;;;;5.47;2.63;;;;;;;10.25;37.06;101517.44;5011317;28;20046;-80
2021/04/04 06:27:49;;;;;;;3.88;2.42;;;;;;;11.23;35.24;101523.53;4997907;28;20073;-79
2021/04/04 06:33:27;;;;;;;3.80;2.38;;;;;;;14.01;29.80;101524.63;5028898;28;20058;-79
2021/04/04 06:36:30;;;;;;;4.25;2.53;;;;;;;14.75;28.55;101517.56;5026716;28;20046;-78
2021/04/04 06:39:16;;;;;;;6.80;2.50;;;;;;;15.08;27.79;101512.78;5012749;28;20080;-77
2021/04/04 06:41:53;;;;;;;4.70;2.42;;;;;;;16.46;26.67;101512.44;5021649;28;20068;-77
2021/04/04 06:44:45;;;;;;;3.60;2.05;;;;;;;15.72;26.71;101512.25;5006739;28;20057;-79
2021/04/04 06:47:28;;;;;;;4.97;2.70;;;;;;;16.07;26.29;101507.19;5024818;28;20053;-77
2021/04/04 06:50:17;;;;;;;7.05;2.30;;;;;;;17.05;24.54;101505.69;5023894;28;20065;-77
2021/04/04 06:53:07;;;;;;;4.35;1.92;;;;;;;17.35;24.29;101507.94;5014924;28;20057;-78
2021/04/04 06:55:59;;;;;;;5.93;2.50;;;;;;;17.78;23.66;101496.78;5012549;28;20062;-79
2021/04/04 06:58:42;;;;;;;6.10;2.75;;;;;;;17.23;24.27;101499.03;5022805;28;20062;-79
2021/04/04 07:01:47;;;;;;;3.83;2.00;;;;;;;16.27;25.94;101495.22;4991584;28;20086;-80
2021/04/04 07:04:24;;;;;;;3.47;2.33;;;;;;;16.77;26.35;101505.00;5025271;28;20057;-79
2021/04/04 07:07:29;;;;;;;6.07;2.30;;;;;;;17.46;25.36;101503.50;5020877;28;20049;-79
2021/04/04 07:09:56;;;;;;;5.50;2.63;;;;;;;18.09;24.42;101500.63;5006386;28;20171;-78
2021/04/04 07:12:57;;;;;;;5.35;2.35;;;;;;;17.38;25.66;101507.69;5023370;28;20081;-81
2021/04/04 07:15:39;;;;;;;3.88;2.22;;;;;;;16.70;26.42;101501.03;5002467;28;20049;-79
2021/04/04 07:18:09;;;;;;;4.80;2.47;;;;;;;19.03;23.75;101500.34;5011694;28;20068;-80
2021/04/04 07:20:44;;;;;;;5.65;2.55;;;;;;;20.30;22.54;101494.25;5000983;28;20073;-79
2021/04/04 07:23:26;;;;;;;;;;;;;;;20.47;21.92;101496.31;4992131;28;20088;-80
2021/04/04 07:26:11;;;;;;;7.40;2.28;;;;;;;18.34;24.21;101502.25;4995257;28;19925;-81
2021/04/04 07:29:11;;;;;;;7.13;2.60;;;;;;;16.65;26.14;101504.03;5002428;28;20046;-80
2021/04/04 07:31:53;;;;;;;8.63;3.08;;;;;;;17.72;25.30;101503.38;5017007;28;20050;-79
2021/04/04 07:34:24;;;;;;;5.88;2.85;;;;;;;17.61;25.18;101498.03;4996018;28;20056;-78
2021/04/04 07:37:28;;;;;;;8.15;2.70;;;;;;;17.63;24.94;101506.75;5011536;28;20057;-77
2021/04/04 07:40:02;;;;;;;9.57;2.88;;;;;;;17.98;24.51;101490.81;5026786;28;20025;-78
2021/04/04 07:42:51;;;;;;;5.57;2.30;;;;;;;18.80;23.86;101488.00;5001457;28;20053;-80
2021/04/04 07:45:35;;;;;;;4.82;2.60;;;;;;;17.15;25.40;101486.28;4990993;28;20594;-79
2021/04/04 07:48:25;;;;;;;5.75;2.78;;;;;;;17.44;25.88;101483.31;4987707;28;20061;-79
2021/04/04 07:51:00;;;;;;;3.90;1.60;;;;;;;16.89;25.74;101480.19;5010361;28;20077;-79
2021/04/04 07:53:34;;;;;;;6.18;2.20;;;;;;;17.49;25.06;101483.81;5005938;28;20136;-81
2021/04/04 07:56:11;;;;;;;5.35;2.05;;;;;;;19.82;22.17;101476.09;4998825;28;20050;-79
2021/04/04 07:58:42;;;;;;;8.05;2.28;;;;;;;18.14;24.03;101477.97;5015689;28;20141;-80
2021/04/04 08:01:13;;;;;;;5.25;2.33;;;;;;;18.90;23.06;101483.59;4997360;28;20058;-78
2021/04/04 08:03:56;;;;;;;4.50;1.75;;;;;;;16.89;25.64;101484.69;5006767;28;20041;-80
2021/04/04 08:06:28;;;;;;;5.50;1.73;;;;;;;18.24;23.88;101475.47;4996849;28;20598;-79
2021/04/04 08:09:17;;;;;;;8.98;2.50;;;;;;;17.34;26.06;101482.28;4985070;28;20049;-79
2021/04/04 08:11:53;;;;;;;9.38;2.90;;;;;;;16.24;27.70;101482.16;5001976;28;20153;-79
2021/04/04 08:14:31;;;;;;;8.35;2.92;;;;;;;15.55;29.13;101477.00;5025969;28;20375;-78
2021/04/04 08:16:58;;;;;;;8.32;2.97;;;;;;;16.55;28.45;101464.91;5040389;28;20052;-78
2021/04/04 08:19:26;;;;;;;6.63;2.58;;;;;;;18.39;26.03;101465.44;5033549;28;20054;-78
2021/04/04 08:22:09;;;;;;;8.88;3.08;;;;;;;18.41;26.07;101461.66;5031265;28;20060;-78
2021/04/04 08:24:37;;;;;;;10.38;3.55;;;;;;;16.59;29.20;101464.59;4992910;28;20049;-78
2021/04/04 08:27:13;;;;;;;14.75;3.30;;;;;;;16.75;29.00;101450.22;4998288;28;20376;-80
2021/04/04 08:29:47;;;;;;;15.60;5.45;;;;;;;14.67;32.48;101465.88;5002685;28;20049;-81
2021/04/04 08:32:19;;;;;;;9.82;3.85;;;;;;;15.97;31.30;101453.03;5004789;28;20058;-78
2021/04/04 08:34:52;;;;;;;12.55;4.43;;;;;;;16.50;30.29;101459.06;5031062;28;20034;-77
2021/04/04 08:37:22;;;;;;;9.60;4.10;;;;;;;17.80;28.47;101450.44;5028434;28;20053;-79
2021/04/04 08:39:54;;;;;;;8.80;3.60;;;;;;;17.27;28.89;101455.28;5032579;28;20372;-78
2021/04/04 08:42:21;;;;;;;8.55;3.95;;;;;;;16.55;30.18;101456.94;5009683;28;20105;-78
2021/04/04 08:45:02;;;;;;;14.73;4.40;;;;;;;15.45;31.99;101458.19;5005847;28;20042;-77
2021/04/04 08:47:30;;;;;;;14.40;4.70;;;;;;;13.91;34.49;101451.97;5004686;28;20130;-78
2021/04/04 08:49:59;;;;;;;11.85;4.10;;;;;;;12.54;37.56;101458.00;5007608;28;20161;-78
2021/04/04 08:52:31;;;;;;;12.77;4.35;;;;;;;10.93;41.16;101460.78;4999227;28;20077;-76
2021/04/04 08:54:58;;;;;;;15.32;4.82;;;;;;;11.19;41.63;101463.97;5029394;28;20049;-76
2021/04/04 08:57:37;;;;;;;11.00;4.72;;;;;;;11.60;40.81;101462.81;5011083;28;20080;-80
2021/04/04 09:00:09;;;;;;;13.63;5.38;;;;;;;11.53;40.69;101455.28;5006115;28;20464;-78
2021/04/04 09:02:46;;;;;;;9.60;4.07;;;;;;;10.83;42.25;101451.63;5001322;28;20153;-80
2021/04/04 09:05:13;;;;;;;9.68;4.68;;;;;;;11.16;42.14;101452.66;5006523;28;20054;-78
2021/04/04 09:07:43;;;;;;;11.63;5.05;;;;;;;10.61;42.95;101451.75;5017578;28;20137;-80
2021/04/04 09:10:15;;;;;;;17.40;5.35;;;;;;;10.89;43.50;101449.53;5000467;28;20078;-80
2021/04/04 09:12:44;;;;;;;15.52;5.38;;;;;;;10.06;45.61;101449.78;5017768;28;20104;-80
2021/04/04 09:15:12;;;;;;;20.80;5.32;;;;;;;9.55;46.86;101450.25;5014765;28;20074;-81
2021/04/04 09:17:57;;;;;;;14.00;5.53;;;;;;;9.34;47.68;101450.19;5015601;28;20065;-80
2021/04/04 09:20:34;;;;;;;19.35;5.90;;;;;;;9.72;47.02;101452.16;5005120;28;20517;-79
2021/04/04 09:23:05;;;;;;;16.60;5.20;;;;;;;9.87;46.27;101443.63;5038512;28;20054;-77
2021/04/04 09:25:34;;;;;;;17.58;6.07;;;;;;;9.74;47.64;101443.28;5039141;28;20057;-77
2021/04/04 09:28:06;;;;;;;14.48;5.25;;;;;;;10.09;47.11;101439.16;5016083;28;20049;-78
2021/04/04 09:30:39;;;;;;;14.68;5.30;;;;;;;10.37;46.98;101437.94;5028226;28;20045;-78
2021/04/04 09:33:28;;;;;;;14.30;5.20;;;;;;;9.99;47.14;101432.53;4987823;28;20058;-77
2021/04/04 09:35:59;;;;;;;12.75;4.47;;;;;;;9.50;48.93;101433.78;5016295;28;20109;-78
2021/04/04 09:38:33;;;;;;;16.48;4.95;;;;;;;9.89;47.30;101431.25;5016036;28;20054;-79
2021/04/04 09:41:00;;;;;;;11.60;4.07;;;;;;;9.90;47.70;101419.81;5000999;28;20877;-78
2021/04/04 09:43:26;;;;;;;13.55;4.55;;;;;;;9.83;47.64;101421.00;5005903;28;20076;-77
2021/04/04 09:46:04;;;;;;;15.07;5.03;;;;;;;10.28;46.49;101428.69;5023301;28;20054;-79
2021/04/04 09:48:39;;;;;;;12.77;4.70;;;;;;;9.99;47.59;101429.91;5006890;28;20050;-78
2021/04/04 09:51:09;;;;;;;10.40;4.30;;;;;;;10.58;45.88;101418.53;5026809;28;20077;-78
2021/04/04 09:53:38;;;;;;;14.63;5.10;;;;;;;10.78;45.54;101429.91;4999014;28;20049;-77
2021/04/04 09:56:13;;;;;;;11.27;4.13;;;;;;;10.25;46.57;101427.97;5009997;28;20067;-79
2021/04/04 09:58:45;;;;;;;13.70;4.30;;;;;;;9.62;47.48;101420.13;5019947;28;20378;-79
2021/04/04 10:01:23;;;;;;;13.93;4.63;;;;;;;9.88;47.12;101409.34;5006470;28;20502;-79
2021/04/04 10:04:06;;;;;;;16.10;5.50;;;;;;;9.38;49.77;101414.97;5031599;28;20076;-78
2021/04/04 10:06:34;;;;;;;14.95;5.00;;;;;;;9.87;48.68;101417.31;4997413;28;20046;-79
2021/04/04 10:09:12;;;;;;;21.05;5.60;;;;;;;9.90;48.13;101410.13;5027069;28;20062;-78
2021/04/04 10:11:39;;;;;;;13.57;4.43;;;;;;;9.77;48.85;101408.97;5022609;28;20077;-78
2021/04/04 10:14:14;;;;;;;21.83;5.30;;;;;;;9.79;47.85;101409.75;4993595;28;20105;-79
2021/04/04 10:16:41;;;;;;;18.27;5.10;;;;;;;10.33;47.04;101410.06;5038337;28;20053;-79
2021/04/04 10:19:11;;;;;;;12.70;5.15;;;;;;;10.46;45.35;101399.81;5003104;28;20073;-79
2021/04/04 10:21:39;;;;;;;18.15;5.40;;;;;;;10.88;45.28;101402.22;5029528;28;20212;-79
2021/04/04 10:24:26;;;;;;;13.63;5.07;;;;;;;11.07;45.19;101391.63;5014741;28;20078;-79
2021/04/04 10:27:28;;;;;;;11.20;4.60;;;;;;;11.09;45.28;101388.00;5023954;28;20054;-80
2021/04/04 10:30:16;;;;;;;19.27;5.75;;;;;;;11.88;43.95;101372.59;5017802;28;20061;-79
2021/04/04 10:32:45;;;;;;;19.42;6.28;;;;;;;11.34;44.84;101386.78;5016547;28;20050;-79
2021/04/04 10:35:35;;;;;;;16.75;5.07;;;;;;;10.82;45.93;101378.81;5010756;28;20090;-77
2021/04/04 10:38:11;;;;;;;14.02;4.68;;;;;;;11.17;45.72;101369.19;5022039;28;20065;-77
2021/04/04 10:40:56;;;;;;;18.13;4.97;;;;;;;10.82;46.38;101371.75;5011489;28;20537;-78
2021/04/04 10:43:42;;;;;;;17.02;5.45;;;;;;;10.82;46.60;101374.38;5003725;28;20152;-79
2021/04/04 10:46:16;;;;;;;17.38;5.57;;;;;;;10.98;47.80;101363.94;5010716;28;20045;-78
2021/04/04 10:48:45;;;;;;;17.20;5.50;;;;;;;11.40;45.05;101357.50;5034450;28;20041;-78
2021/04/04 10:51:16;;;;;;;14.23;4.03;;;;;;;11.16;44.97;101362.19;4998971;28;20105;-78
2021/04/04 10:53:43;;;;;;;16.60;4.30;;;;;;;11.65;44.79;101362.34;5002313;28;20045;-77
2021/04/04 10:56:12;;;;;;;20.58;4.53;;;;;;;12.27;43.90;101354.72;5028132;28;20101;-79
2021/04/04 10:58:40;;;;;;;12.18;4.38;;;;;;;12.77;41.58;101349.28;5038575;28;20050;-77
2021/04/04 11:01:10;;;;;;;14.65;3.42;;;;;;;13.00;41.66;101347.09;5019607;28;20058;-77
2021/04/04 11:03:38;;;;;;;13.93;4.55;;;;;;;11.93;44.35;101339.84;5030361;28;20073;-79
2021/04/04 11:06:05;;;;;;;13.35;4.78;;;;;;;11.94;44.51;101342.41;4991438;28;20045;-78
2021/04/04 11:08:32;;;;;;;12.18;4.40;;;;;;;11.19;45.51;101335.69;5016582;28;20030;-80
2021/04/04 11:11:00;;;;;;;17.42;4.95;;;;;;;10.55;46.11;101337.06;4999981;28;20062;-80
2021/04/04 11:13:27;;;;;;;15.38;3.83;;;;;;;11.01;45.79;101324.28;4980847;28;20081;-79
2021/04/04 11:15:57;;;;;;;13.85;4.95;;;;;;;11.41;44.88;101324.91;5010926;28;20498;-77
2021/04/04 11:18:37;;;;;;;13.52;4.22;;;;;;;10.82;46.17;101328.75;4996588;28;20053;-79
2021/04/04 11:21:11;;;;;;;12.43;4.13;;;;;;;10.41;47.92;101326.34;5030967;28;20081;-77
2021/04/04 11:23:38;;;;;;;10.35;3.38;;;;;;;10.42;47.77;101319.28;5009331;28;20242;-80
2021/04/04 11:26:30;;;;;;;13.02;3.65;;;;;;;9.95;48.47;101317.03;4994829;28;20074;-79
2021/04/04 11:29:07;;;;;;;12.45;3.67;;;;;;;10.33;47.83;101315.31;5013337;28;20089;-79
2021/04/04 11:31:36;;;;;;;17.70;4.13;;;;;;;10.06;48.18;101313.00;5029731;28;20054;-78
2021/04/04 11:34:21;;;;;;;13.90;3.53;;;;;;;10.38;47.97;101294.88;5018244;28;20046;-79
2021/04/04 11:36:48;;;;;;;14.70;3.58;;;;;;;10.34;47.75;101309.97;5020261;28;20049;-77
2021/04/04 11:39:15;;;;;;;15.88;3.97;;;;;;;10.94;46.15;101288.63;5006092;28;20082;-79
2021/04/04 11:42:04;;;;;;;13.48;3.55;;;;;;;11.48;44.17;101286.75;4982011;28;20081;-79
2021/04/04 11:44:33;;;;;;;18.67;4.40;;;;;;;11.94;43.33;101279.09;5009540;28;20054;-78
2021/04/04 11:47:05;;;;;;;10.80;4.03;;;;;;;11.93;44.32;101276.50;5014897;28;20046;-78
2021/04/04 11:49:36;;;;;;;13.27;4.60;;;;;;;12.02;44.47;101276.00;5009543;28;20061;-78
2021/04/04 11:52:09;;;;;;;15.50;5.03;;;;;;;11.52;45.43;101267.19;4995764;28;20077;-77
2021/04/04 11:54:45;;;;;;;12.13;3.88;;;;;;;11.04;46.00;101255.63;5037779;28;20040;-77
2021/04/04 11:57:20;;;;;;;12.98;3.90;;;;;;;10.94;46.37;101251.75;5020082;28;20033;-78
2021/04/04 11:59:51;;;;;;;17.00;3.95;;;;;;;11.08;45.99;101249.28;4997490;28;20049;-76
2021/04/04 12:02:20;;;;;;;14.63;3.25;;;;;;;10.68;46.81;101239.91;5018253;28;20074;-77
2021/04/04 12:05:08;;;;;;;12.02;3.83;;;;;;;10.65;47.14;101250.56;5032572;28;20049;-77
2021/04/04 12:11:41;;;;;;;16.13;3.72;;;;;;;11.89;45.21;101238.91;5018111;28;20121;-79
2021/04/04 12:14:09;;;;;;;14.57;4.88;;;;;;;11.02;46.55;101236.41;4990955;28;20093;-77
2021/04/04 12:16:49;;;;;;;15.55;3.92;;;;;;;10.30;48.42;101233.84;5008163;28;20144;-78
2021/04/04 12:19:30;;;;;;;14.90;3.70;;;;;;;10.47;48.29;101223.38;5014003;28;20112;-80
2021/04/04 12:21:58;;;;;;;13.45;3.58;;;;;;;10.90;45.61;101216.81;5025415;28;20126;-78
2021/04/04 12:24:41;;;;;;;12.27;3.63;;;;;;;11.23;45.00;101210.75;5003653;28;20586;-78
2021/04/04 12:27:10;;;;;;;7.57;2.78;;;;;;;10.80;45.73;101214.72;5007158;28;20066;-79
2021/04/04 12:29:43;;;;;;;11.50;3.05;;;;;;;11.07;45.12;101201.91;5016497;28;20116;-79
2021/04/04 12:32:19;;;;;;;16.52;3.30;;;;;;;11.11;45.15;101200.84;5001510;28;20069;-79
2021/04/04 12:34:48;;;;;;;15.50;3.60;;;;;;;11.26;44.23;101197.41;5023444;28;20545;-79
2021/04/04 12:37:19;;;;;;;11.57;3.40;;;;;;;11.01;45.50;101200.47;4982323;28;20137;-78
2021/04/04 12:39:54;;;;;;;18.52;3.70;;;;;;;10.71;45.71;101183.59;4995027;28;20080;-79
2021/04/04 12:42:25;;;;;;;9.90;3.58;;;;;;;10.50;46.64;101185.53;5006207;28;20081;-80
2021/04/04 12:44:53;;;;;;;16.20;4.25;;;;;;;10.71;46.27;101186.22;4997670;28;20074;-80
2021/04/04 12:47:25;;;;;;;13.15;4.03;;;;;;;10.44;46.94;101180.53;4998218;28;20133;-80
2021/04/04 12:49:53;;;;;;;16.58;4.07;;;;;;;10.46;46.79;101178.72;5018916;28;20053;-78
2021/04/04 12:52:38;;;;;;;14.55;3.78;;;;;;;10.23;47.21;101167.50;5022675;28;20037;-79
2021/04/04 12:55:18;;;;;;;10.82;3.75;;;;;;;10.12;47.65;101168.00;5016923;28;20079;-80
2021/04/04 12:58:03;;;;;;;10.55;3.35;;;;;;;10.36;46.96;101157.25;5024703;28;20045;-79
2021/04/04 13:00:41;;;;;;;14.77;3.50;;;;;;;10.30;47.01;101158.38;5024277;28;20058;-77
2021/04/04 13:03:10;;;;;;;13.05;3.67;;;;;;;10.33;46.52;101154.78;4996941;28;20057;-78
2021/04/04 13:05:52;;;;;;;8.85;3.47;;;;;;;10.44;46.75;101152.44;5009082;28;20131;-80
2021/04/04 13:08:24;;;;;;;13.57;3.67;;;;;;;10.71;46.30;101147.56;5000561;28;20182;-79
2021/04/04 13:10:53;;;;;;;16.60;3.78;;;;;;;10.44;47.31;101151.59;5015636;28;20040;-76
2021/04/04 13:13:30;;;;;;;13.55;3.75;;;;;;;10.17;48.45;101140.63;5037951;28;20103;-77
2021/04/04 13:15:58;;;;;;;12.77;4.15;;;;;;;10.11;48.35;101133.88;5021748;28;20046;-77
2021/04/04 13:18:27;;;;;;;14.80;5.00;;;;;;;10.48;47.67;101139.97;5039020;28;20038;-77
2021/04/04 13:21:03;;;;;;;14.82;3.72;;;;;;;10.88;46.81;101120.38;5032983;28;20054;-78
2021/04/04 13:23:38;;;;;;;15.05;3.72;;;;;;;11.29;45.96;101112.88;5021959;28;20053;-79
2021/04/04 13:26:07;;;;;;;17.80;4.10;;;;;;;11.20;45.98;101117.81;5027336;28;20053;-77
2021/04/04 13:28:35;;;;;;;11.25;4.20;;;;;;;11.25;45.75;101111.34;5035570;28;20077;-78
2021/04/04 13:31:15;;;;;;;12.82;3.75;;;;;;;11.09;45.86;101106.06;5028311;28;20066;-80
2021/04/04 13:33:43;;;;;;;18.63;3.38;;;;;;;11.17;45.40;101100.41;5000408;28;20080;-80
2021/04/04 13:36:19;;;;;;;12.95;3.97;;;;;;;10.86;46.07;101104.66;5022579;28;20034;-78
2021/04/04 13:38:49;;;;;;;12.50;3.65;;;;;;;10.83;46.21;101098.69;4998531;28;20041;-79
2021/04/04 13:41:18;;;;;;;13.68;3.95;;;;;;;11.07;45.62;101092.09;5015256;28;20085;-81
2021/04/04 13:43:53;;;;;;;16.60;3.63;;;;;;;11.19;45.23;101082.69;4990020;28;20183;-81
2021/04/04 13:46:31;;;;;;;14.95;3.70;;;;;;;11.02;45.50;101088.88;5011428;28;20050;-79
2021/04/04 13:49:01;;;;;;;11.50;3.22;;;;;;;10.63;46.10;101086.56;5012181;28;20034;-79
2021/04/04 13:51:28;;;;;;;11.77;3.17;;;;;;;10.67;46.04;101079.34;5009156;28;20065;-79
2021/04/04 13:54:13;;;;;;;17.95;3.88;;;;;;;10.43;45.97;101076.19;5006887;28;20045;-79
2021/04/04 13:56:49;;;;;;;11.77;3.63;;;;;;;10.74;46.44;101083.38;5021695;28;20049;-78
2021/04/04 13:59:31;;;;;;;11.15;3.13;;;;;;;10.99;45.18;101078.50;5031036;28;20146;-78
2021/04/04 14:02:05;;;;;;;13.73;3.28;;;;;;;10.77;46.36;101067.41;5013759;28;20051;-79
2021/04/04 14:04:33;;;;;;;10.07;3.50;;;;;;;10.22;47.05;101064.94;5012200;28;20078;-79
2021/04/04 14:07:04;;;;;;;13.20;3.13;;;;;;;10.40;46.96;101061.41;5019080;28;20046;-78
2021/04/04 14:09:36;;;;;;;13.27;3.20;;;;;;;10.76;45.79;101050.75;5015786;28;20070;-79
2021/04/04 14:12:05;;;;;;;12.38;2.90;;;;;;;10.98;45.26;101042.53;5008693;28;20054;-80
2021/04/04 14:14:33;;;;;;;15.60;3.00;;;;;;;10.79;45.26;101044.47;5006001;28;20313;-78
2021/04/04 14:17:01;;;;;;;14.45;3.40;;;;;;;10.87;45.27;101037.88;5018457;28;20070;-80
2021/04/04 14:19:28;;;;;;;11.93;2.88;;;;;;;10.76;45.63;101027.06;5017284;28;20081;-77
2021/04/04 14:21:56;;;;;;;15.15;3.03;;;;;;;10.77;46.32;101027.91;5022314;28;20050;-81
2021/04/04 14:24:23;;;;;;;15.40;3.42;;;;;;;10.51;46.42;101021.38;4991014;28;20058;-78
2021/04/04 14:26:51;;;;;;;16.42;3.50;;;;;;;9.98;47.55;101022.31;4999495;28;20048;-79
2021/04/04 14:29:19;;;;;;;13.90;3.60;;;;;;;10.10;47.55;101012.03;4997984;28;20077;-78
2021/04/04 14:31:49;;;;;;;9.00;2.50;;;;;;;10.03;47.42;101013.25;5017716;28;20529;-80
2021/04/04 14:34:18;;;;;;;17.17;3.95;;;;;;;10.26;47.37;101003.38;5031319;28;20067;-78
2021/04/04 14:36:46;;;;;;;11.68;3.65;;;;;;;10.22;47.85;100999.16;5016822;28;20033;-78
2021/04/04 14:39:13;;;;;;;16.13;4.18;;;;;;;10.56;46.65;100987.75;5033164;28;20588;-77
2021/04/04 14:41:40;;;;;;;18.67;3.97;;;;;;;10.45;47.16;100987.50;5028317;28;20118;-79
2021/04/04 14:46:46;;;;;;;12.80;3.53;;;;;;;10.10;47.75;100975.19;5023245;28;20124;-79